Time;durP1;ratioP1;P1;durP2;ratioP2;P2;SDS_P1;SDS_P2;PMS_P1;PMS_P2;Temp;Humidity;BMP_temperature;BMP_pressure;BME280_temperature;BME280_humidity;BME280_pressure;Samples;Min_cycle;Max_cycle;Signal;HPM_P1;HPM_P2
2022/09/20 00:00:50;;;;;;;5.25;1.23;;;;;;;;;;5072900;28;20140;-78
2022/09/20 00:03:16;;;;;;;3.00;1.35;;;;;;;;;;5038370;28;20093;-78
2022/09/20 00:05:44;;;;;;;1.60;1.20;;;;;;;;;;5038389;28;20060;-78
2022/09/20 00:08:13;;;;;;;2.83;1.45;;;;;;;;;;5038156;28;20107;-78
2022/09/20 00:10:39;;;;;;;1.30;1.10;;;;;;;;;;5054883;28;20020;-78
2022/09/20 00:13:06;;;;;;;5.00;1.75;;;;;;;;;;5054230;28;20395;-79
2022/09/20 00:15:32;;;;;;;2.15;1.60;;;;;;;;;;5038775;28;20376;-78
2022/09/20 00:17:57;;;;;;;2.75;1.25;;;;;;;;;;5021783;28;20031;-78
2022/09/20 00:20:23;;;;;;;2.85;1.10;;;;;;;;;;5038594;28;20342;-77
2022/09/20 00:22:48;;;;;;;3.13;1.15;;;;;;;;;;5072716;28;20037;-78
2022/09/20 00:25:17;;;;;;;2.33;1.20;;;;;;;;;;5037877;28;20032;-78
2022/09/20 00:27:44;;;;;;;3.33;1.42;;;;;;;;;;5021433;28;20445;-78
2022/09/20 00:30:11;;;;;;;2.22;1.10;;;;;;;;;;5038130;28;20032;-78
2022/09/20 00:32:36;;;;;;;3.65;1.30;;;;;;;;;;5072703;28;20032;-78
2022/09/20 00:35:11;;;;;;;2.50;1.20;;;;;;;;;;5054424;28;20068;-78
2022/09/20 00:37:39;;;;;;;2.78;1.17;;;;;;;;;;5055787;28;20075;-78
2022/09/20 00:40:07;;;;;;;1.88;1.00;;;;;;;;;;5054525;28;20025;-78
2022/09/20 00:42:33;;;;;;;3.10;1.52;;;;;;;;;;5054449;28;20079;-78
2022/09/20 00:45:00;;;;;;;2.47;1.08;;;;;;;;;;5037760;28;20374;-78
2022/09/20 00:47:43;;;;;;;2.47;1.60;;;;;;;;;;5072658;28;20115;-78
2022/09/20 00:50:36;;;;;;;2.80;1.00;;;;;;;;;;5054424;28;20039;-78
2022/09/20 00:53:10;;;;;;;5.40;1.40;;;;;;;;;;5037772;28;20021;-78
2022/09/20 00:55:39;;;;;;;1.85;1.02;;;;;;;;;;5037511;28;20032;-78
2022/09/20 00:58:04;;;;;;;3.58;0.95;;;;;;;;;;5054441;28;20381;-78
2022/09/20 01:00:31;;;;;;;1.55;0.90;;;;;;;;;;5054114;28;20053;-78
2022/09/20 01:03:01;;;;;;;2.17;1.08;;;;;;;;;;5072193;28;20059;-78
2022/09/20 01:05:26;;;;;;;2.30;1.10;;;;;;;;;;5054252;28;20031;-78
2022/09/20 01:07:52;;;;;;;3.08;1.10;;;;;;;;;;5054341;28;20392;-78
2022/09/20 01:10:18;;;;;;;2.25;1.23;;;;;;;;;;5054419;28;20044;-78
2022/09/20 01:12:44;;;;;;;1.52;1.08;;;;;;;;;;5054510;28;20021;-78
2022/09/20 01:15:12;;;;;;;1.60;1.00;;;;;;;;;;5054432;28;20086;-78
2022/09/20 01:17:40;;;;;;;1.73;0.90;;;;;;;;;;5072139;28;20029;-79
2022/09/20 01:20:24;;;;;;;1.85;1.10;;;;;;;;;;5054645;28;20020;-78
2022/09/20 01:23:08;;;;;;;5.07;1.20;;;;;;;;;;5037522;28;20028;-78
2022/09/20 01:26:01;;;;;;;2.67;1.63;;;;;;;;;;5055781;28;20400;-78
2022/09/20 01:28:28;;;;;;;4.25;1.05;;;;;;;;;;5057731;28;20130;-79
2022/09/20 01:31:27;;;;;;;5.57;1.88;;;;;;;;;;5057695;28;20032;-79
2022/09/20 01:34:35;;;;;;;4.55;1.13;;;;;;;;;;5057841;28;20104;-78
2022/09/20 01:37:23;;;;;;;6.63;1.00;;;;;;;;;;5057958;28;20431;-78
2022/09/20 01:40:08;;;;;;;1.63;1.17;;;;;;;;;;5041249;28;20111;-79
2022/09/20 01:42:38;;;;;;;6.15;1.10;;;;;;;;;;5075698;28;20048;-79
2022/09/20 01:45:36;;;;;;;2.95;0.77;;;;;;;;;;5057972;28;20031;-78
2022/09/20 01:48:14;;;;;;;1.75;1.00;;;;;;;;;;5041866;28;20064;-78
2022/09/20 01:51:07;;;;;;;2.15;1.00;;;;;;;;;;5040544;28;20472;-78
2022/09/20 01:53:38;;;;;;;1.50;1.00;;;;;;;;;;5075438;28;20032;-78
2022/09/20 01:56:34;;;;;;;1.75;0.90;;;;;;;;;;5075766;28;20037;-78
2022/09/20 01:59:05;;;;;;;4.47;1.20;;;;;;;;;;5056999;28;20035;-78
2022/09/20 02:01:50;;;;;;;2.08;1.10;;;;;;;;;;5041174;28;20049;-78
2022/09/20 02:04:18;;;;;;;;;;;;;;;;;;5037574;28;20029;-78
2022/09/20 02:06:49;;;;;;;2.05;1.00;;;;;;;;;;5037385;28;19908;-78
2022/09/20 02:09:45;;;;;;;3.35;1.10;;;;;;;;;;5055044;28;20043;-79
2022/09/20 02:12:31;;;;;;;4.30;1.10;;;;;;;;;;5026326;28;20033;-78
2022/09/20 02:15:02;;;;;;;1.55;1.05;;;;;;;;;;5054692;28;20140;-78
2022/09/20 02:17:52;;;;;;;1.85;0.98;;;;;;;;;;5054936;28;20084;-78
2022/09/20 02:20:32;;;;;;;2.17;1.00;;;;;;;;;;5020337;28;20114;-78
2022/09/20 02:23:35;;;;;;;2.10;1.20;;;;;;;;;;5036623;28;20024;-77
2022/09/20 02:26:31;;;;;;;2.72;0.90;;;;;;;;;;5054838;28;20033;-77
2022/09/20 02:29:11;;;;;;;3.75;1.40;;;;;;;;;;5054578;28;20074;-77
2022/09/20 02:31:55;;;;;;;9.95;1.10;;;;;;;;;;5036600;28;20051;-78
2022/09/20 02:34:48;;;;;;;2.30;1.20;;;;;;;;;;5036337;28;20116;-77
2022/09/20 02:37:51;;;;;;;4.15;1.10;;;;;;;;;;5054001;28;20048;-77
2022/09/20 02:40:35;;;;;;;2.75;1.20;;;;;;;;;;5036430;28;20507;-77
2022/09/20 02:43:11;;;;;;;2.72;0.90;;;;;;;;;;5036403;28;20108;-77
2022/09/20 02:46:08;;;;;;;2.78;0.98;;;;;;;;;;5036536;28;20079;-78
2022/09/20 02:48:41;;;;;;;4.10;1.23;;;;;;;;;;5054175;28;20392;-79
2022/09/20 02:51:20;;;;;;;3.08;1.00;;;;;;;;;;5036384;28;20587;-78
2022/09/20 02:54:18;;;;;;;3.63;1.00;;;;;;;;;;5036793;28;20037;-79
2022/09/20 02:57:03;;;;;;;2.38;0.88;;;;;;;;;;5054492;28;20456;-78
2022/09/20 02:59:32;;;;;;;2.75;0.90;;;;;;;;;;5035542;28;20090;-78
2022/09/20 03:02:07;;;;;;;2.90;1.20;;;;;;;;;;5073098;28;20055;-78
2022/09/20 03:05:00;;;;;;;3.15;0.85;;;;;;;;;;5056378;28;20024;-78
2022/09/20 03:07:45;;;;;;;2.30;0.95;;;;;;;;;;5073886;28;20098;-78
2022/09/20 03:10:14;;;;;;;3.15;1.20;;;;;;;;;;5073836;28;20085;-78
2022/09/20 03:13:10;;;;;;;0.93;0.70;;;;;;;;;;5073908;28;20020;-78
2022/09/20 03:16:01;;;;;;;2.40;1.00;;;;;;;;;;5073718;28;20037;-78
2022/09/20 03:18:45;;;;;;;3.58;1.10;;;;;;;;;;5056024;28;20020;-77
2022/09/20 03:21:33;;;;;;;3.97;1.50;;;;;;;;;;5055549;28;20028;-79
2022/09/20 03:24:16;;;;;;;2.15;1.15;;;;;;;;;;5038955;28;20442;-78
2022/09/20 03:27:08;;;;;;;2.15;1.00;;;;;;;;;;5073865;28;20499;-79
2022/09/20 03:29:42;;;;;;;2.53;0.73;;;;;;;;;;5050136;28;20067;-78
2022/09/20 03:32:17;;;;;;;1.45;0.82;;;;;;;;;;5055441;28;20077;-78
2022/09/20 03:34:54;;;;;;;3.50;0.90;;;;;;;;;;5055254;28;20111;-78
2022/09/20 03:37:57;;;;;;;1.65;0.88;;;;;;;;;;5055137;28;20036;-78
2022/09/20 03:41:03;;;;;;;2.00;1.10;;;;;;;;;;5073097;28;20525;-78
2022/09/20 03:43:51;;;;;;;5.63;0.90;;;;;;;;;;5055363;28;20063;-78
2022/09/20 03:46:45;;;;;;;1.77;0.80;;;;;;;;;;5038557;28;20028;-78
2022/09/20 03:49:42;;;;;;;3.47;1.00;;;;;;;;;;5054429;28;20477;-78
2022/09/20 03:52:34;;;;;;;1.88;1.10;;;;;;;;;;5073091;28;20538;-79
2022/09/20 03:55:15;;;;;;;3.58;0.90;;;;;;;;;;5054892;28;20037;-78
2022/09/20 03:57:58;;;;;;;2.30;0.80;;;;;;;;;;5054762;28;20032;-78
2022/09/20 04:00:45;;;;;;;2.50;0.93;;;;;;;;;;5073063;28;20041;-78
2022/09/20 04:03:17;;;;;;;1.85;0.85;;;;;;;;;;5072736;28;20024;-78
2022/09/20 04:05:53;;;;;;;2.55;0.73;;;;;;;;;;5055040;28;20021;-78
2022/09/20 04:09:00;;;;;;;1.77;1.15;;;;;;;;;;5072916;28;20028;-78
2022/09/20 04:11:50;;;;;;;2.17;0.82;;;;;;;;;;5038099;28;20025;-78
2022/09/20 04:14:29;;;;;;;1.40;0.90;;;;;;;;;;5054851;28;20104;-78
2022/09/20 04:17:00;;;;;;;3.33;1.50;;;;;;;;;;5038204;28;20062;-79
2022/09/20 04:19:38;;;;;;;6.32;1.30;;;;;;;;;;5038042;28;20025;-79
2022/09/20 04:22:06;;;;;;;4.10;1.58;;;;;;;;;;5055001;28;20025;-78
2022/09/20 04:24:36;;;;;;;9.38;1.75;;;;;;;;;;5054817;28;20028;-78
2022/09/20 04:27:09;;;;;;;9.00;2.00;;;;;;;;;;5054697;28;20118;-77
2022/09/20 04:29:45;;;;;;;5.95;2.22;;;;;;;;;;5054868;28;20423;-77
2022/09/20 04:32:43;;;;;;;10.30;3.15;;;;;;;;;;5054580;28;20115;-78
2022/09/20 04:38:30;;;;;;;13.55;3.85;;;;;;;;;;5072531;28;20038;-78
2022/09/20 04:41:11;;;;;;;9.20;3.20;;;;;;;;;;5054119;28;20219;-77
2022/09/20 04:44:05;;;;;;;9.32;3.13;;;;;;;;;;5072180;28;20025;-77
2022/09/20 04:46:48;;;;;;;12.85;2.97;;;;;;;;;;5072135;28;20043;-77
2022/09/20 04:49:35;;;;;;;7.38;2.42;;;;;;;;;;5054470;28;20445;-78
2022/09/20 04:52:13;;;;;;;11.40;3.22;;;;;;;;;;5055530;28;20115;-77
2022/09/20 04:54:57;;;;;;;17.27;3.08;;;;;;;;;;5054322;28;20024;-77
2022/09/20 04:57:33;;;;;;;20.30;4.57;;;;;;;;;;5054046;28;20085;-76
2022/09/20 05:00:07;;;;;;;19.10;4.07;;;;;;;;;;5061217;28;20044;-77
2022/09/20 05:03:11;;;;;;;22.50;3.78;;;;;;;;;;5058225;28;20064;-77
2022/09/20 05:06:00;;;;;;;16.67;4.27;;;;;;;;;;5063832;28;20501;-77
2022/09/20 05:08:32;;;;;;;15.75;4.13;;;;;;;;;;5028556;28;20761;-77
2022/09/20 05:11:18;;;;;;;15.98;3.60;;;;;;;;;;5058159;28;20025;-77
2022/09/20 05:13:52;;;;;;;13.50;3.88;;;;;;;;;;5076349;28;20024;-77
2022/09/20 05:16:40;;;;;;;12.95;4.28;;;;;;;;;;5076050;28;20020;-77
2022/09/20 05:19:30;;;;;;;14.02;3.50;;;;;;;;;;5076490;28;20097;-76
2022/09/20 05:21:56;;;;;;;12.43;2.70;;;;;;;;;;5051019;28;20051;-76
2022/09/20 05:24:53;;;;;;;12.95;3.50;;;;;;;;;;5073782;28;20039;-76
2022/09/20 05:27:37;;;;;;;9.32;2.45;;;;;;;;;;5036637;28;20504;-77
2022/09/20 05:30:11;;;;;;;;;;;;;;;;;;5071534;28;20028;-77
2022/09/20 05:32:49;;;;;;;5.35;2.45;;;;;;;;;;5073170;28;20010;-77
2022/09/20 05:35:38;;;;;;;9.50;2.90;;;;;;;;;;5057416;28;20251;-77
2022/09/20 05:38:26;;;;;;;12.35;2.75;;;;;;;;;;5074115;28;20074;-76
2022/09/20 05:41:03;;;;;;;12.23;2.15;;;;;;;;;;5040896;28;20056;-76
2022/09/20 05:43:34;;;;;;;7.00;2.20;;;;;;;;;;5059076;28;20042;-77
2022/09/20 05:46:35;;;;;;;9.90;2.15;;;;;;;;;;5057773;28;20024;-77
2022/09/20 05:49:35;;;;;;;8.70;2.05;;;;;;;;;;5057904;28;20060;-77
2022/09/20 05:52:31;;;;;;;4.88;1.75;;;;;;;;;;5060273;28;20013;-77
2022/09/20 05:55:12;;;;;;;5.53;2.08;;;;;;;;;;5080520;28;20066;-76
2022/09/20 05:58:00;;;;;;;3.38;1.52;;;;;;;;;;5081256;28;20028;-76
2022/09/20 06:00:30;;;;;;;7.68;2.78;;;;;;;;;;5075738;28;20040;-76
2022/09/20 06:03:20;;;;;;;5.43;1.60;;;;;;;;;;5057585;28;20059;-76
2022/09/20 06:06:08;;;;;;;5.25;1.63;;;;;;;;;;5075226;28;20048;-76
2022/09/20 06:08:48;;;;;;;2.60;1.38;;;;;;;;;;5076103;28;20103;-76
2022/09/20 06:11:34;;;;;;;5.80;1.60;;;;;;;;;;5056637;28;20043;-76
2022/09/20 06:14:18;;;;;;;6.70;1.92;;;;;;;;;;5056891;28;20558;-76
2022/09/20 06:17:08;;;;;;;9.38;2.15;;;;;;;;;;5074893;28;20032;-76
2022/09/20 06:19:44;;;;;;;11.15;2.35;;;;;;;;;;5056819;28;20524;-76
2022/09/20 06:22:23;;;;;;;6.38;1.65;;;;;;;;;;5056484;28;20033;-76
2022/09/20 06:25:00;;;;;;;4.78;1.45;;;;;;;;;;5074408;28;20023;-76
2022/09/20 06:27:31;;;;;;;3.65;1.42;;;;;;;;;;5039763;28;20033;-76
2022/09/20 06:30:00;;;;;;;6.00;1.42;;;;;;;;;;5056441;28;20088;-76
2022/09/20 06:32:26;;;;;;;5.93;1.45;;;;;;;;;;5056615;28;20024;-76
2022/09/20 06:34:52;;;;;;;3.20;1.20;;;;;;;;;;5056081;28;20054;-76
2022/09/20 06:43:23;;;;;;;4.70;1.70;;;;;;;;;;5059124;28;20498;-76
2022/09/20 06:45:49;;;;;;;5.85;1.60;;;;;;;;;;5074055;28;20124;-76
2022/09/20 06:48:14;;;;;;;2.35;1.33;;;;;;;;;;5074370;28;20031;-75
2022/09/20 06:50:44;;;;;;;4.70;1.20;;;;;;;;;;5056807;28;20108;-74
2022/09/20 06:53:15;;;;;;;1.95;1.33;;;;;;;;;;5040024;28;20032;-76
2022/09/20 06:55:42;;;;;;;4.15;1.20;;;;;;;;;;5039589;28;20024;-76
2022/09/20 06:58:08;;;;;;;5.05;1.23;;;;;;;;;;5056086;28;20036;-77
2022/09/20 07:00:36;;;;;;;2.40;1.20;;;;;;;;;;5073770;28;20048;-77
2022/09/20 07:03:01;;;;;;;2.47;1.20;;;;;;;;;;5056329;28;20024;-76
2022/09/20 07:05:26;;;;;;;3.67;1.45;;;;;;;;;;5055958;28;20043;-76
2022/09/20 07:07:57;;;;;;;3.40;1.15;;;;;;;;;;5039133;28;20028;-76
2022/09/20 07:10:22;;;;;;;4.82;1.20;;;;;;;;;;5074814;28;20389;-76
2022/09/20 07:12:48;;;;;;;4.47;1.42;;;;;;;;;;5077156;28;20025;-76
2022/09/20 07:15:15;;;;;;;5.72;1.13;;;;;;;;;;5058115;28;20384;-75
2022/09/20 07:17:43;;;;;;;3.17;1.20;;;;;;;;;;5042102;28;20028;-75
2022/09/20 07:20:09;;;;;;;10.02;1.48;;;;;;;;;;5057848;28;20146;-76
2022/09/20 07:22:34;;;;;;;4.35;1.10;;;;;;;;;;5052238;28;20064;-75
2022/09/20 07:25:01;;;;;;;8.07;1.55;;;;;;;;;;5052218;28;20025;-76
2022/09/20 07:27:27;;;;;;;3.38;1.42;;;;;;;;;;5036431;28;20037;-76
2022/09/20 07:29:53;;;;;;;7.95;1.90;;;;;;;;;;5038380;28;20024;-77
2022/09/20 07:32:19;;;;;;;4.07;1.20;;;;;;;;;;5023122;28;20051;-76
2022/09/20 07:34:45;;;;;;;4.88;1.33;;;;;;;;;;5056642;28;20029;-76
2022/09/20 07:37:10;;;;;;;3.00;1.23;;;;;;;;;;5004968;28;20071;-76
2022/09/20 07:39:35;;;;;;;6.15;1.75;;;;;;;;;;5038049;28;20033;-76
2022/09/20 07:42:05;;;;;;;4.82;1.17;;;;;;;;;;5053344;28;20143;-76
2022/09/20 07:44:30;;;;;;;3.95;1.05;;;;;;;;;;5036705;28;20123;-75
2022/09/20 07:46:59;;;;;;;2.88;1.15;;;;;;;;;;5020562;28;20044;-76
2022/09/20 07:49:28;;;;;;;4.70;1.08;;;;;;;;;;5053327;28;20110;-76
2022/09/20 07:51:54;;;;;;;1.15;0.90;;;;;;;;;;5005323;28;20417;-76
2022/09/20 07:54:20;;;;;;;1.77;1.13;;;;;;;;;;5018599;28;20163;-75
2022/09/20 07:56:45;;;;;;;4.38;1.17;;;;;;;;;;5035503;28;20033;-75
2022/09/20 07:59:12;;;;;;;2.72;1.42;;;;;;;;;;5034305;28;20028;-76
2022/09/20 08:01:41;;;;;;;2.97;1.10;;;;;;;;;;5034346;28;20102;-76
2022/09/20 08:04:09;;;;;;;4.53;1.30;;;;;;;;;;5052645;28;20027;-76
2022/09/20 08:06:40;;;;;;;3.90;1.65;;;;;;;;;;5034206;28;20032;-76
2022/09/20 08:09:06;;;;;;;2.42;1.17;;;;;;;;;;5034664;28;20029;-75
2022/09/20 08:11:33;;;;;;;3.10;1.02;;;;;;;;;;5051976;28;20091;-75
2022/09/20 08:13:59;;;;;;;2.08;1.08;;;;;;;;;;5034216;28;20433;-77
2022/09/20 08:16:25;;;;;;;3.15;1.20;;;;;;;;;;5034135;28;20029;-75
2022/09/20 08:19:01;;;;;;;2.25;0.68;;;;;;;;;;5033679;28;20473;-77
2022/09/20 08:21:32;;;;;;;1.45;0.93;;;;;;;;;;5033694;28;20033;-77
2022/09/20 08:23:58;;;;;;;2.88;1.13;;;;;;;;;;5017941;28;20391;-74
2022/09/20 08:26:25;;;;;;;5.95;1.20;;;;;;;;;;5001606;28;20436;-77
2022/09/20 08:28:53;;;;;;;2.97;0.85;;;;;;;;;;5017648;28;20032;-78
2022/09/20 08:31:21;;;;;;;1.23;0.85;;;;;;;;;;5034019;28;20142;-77
2022/09/20 08:33:47;;;;;;;1.98;1.00;;;;;;;;;;5033821;28;20032;-77
2022/09/20 08:36:15;;;;;;;1.83;0.80;;;;;;;;;;5034313;28;20064;-77
2022/09/20 08:38:41;;;;;;;1.00;0.82;;;;;;;;;;5033680;28;20029;-76
2022/09/20 08:41:11;;;;;;;3.70;0.80;;;;;;;;;;5033873;28;20407;-76
2022/09/20 08:43:41;;;;;;;4.32;1.10;;;;;;;;;;5034037;28;20091;-74
2022/09/20 08:46:15;;;;;;;3.03;0.90;;;;;;;;;;5033851;28;20033;-75
2022/09/20 08:48:40;;;;;;;1.38;0.93;;;;;;;;;;5033517;28;20091;-76
2022/09/20 08:51:09;;;;;;;3.75;1.33;;;;;;;;;;5051296;28;20136;-74
2022/09/20 08:53:43;;;;;;;2.40;1.10;;;;;;;;;;5050608;28;20039;-74
2022/09/20 08:56:10;;;;;;;2.58;1.00;;;;;;;;;;5034004;28;20025;-74
2022/09/20 08:58:37;;;;;;;2.17;0.80;;;;;;;;;;5033835;28;20104;-74
2022/09/20 09:01:04;;;;;;;2.40;0.82;;;;;;;;;;5033856;28;20056;-74
2022/09/20 09:03:31;;;;;;;2.25;1.60;;;;;;;;;;5017635;28;20029;-75
2022/09/20 09:05:57;;;;;;;3.03;1.02;;;;;;;;;;5017294;28;20162;-74
2022/09/20 09:08:43;;;;;;;2.97;1.08;;;;;;;;;;5033336;28;20037;-75
2022/09/20 09:11:13;;;;;;;1.55;0.95;;;;;;;;;;5033111;28;20083;-74
2022/09/20 09:13:52;;;;;;;2.25;0.98;;;;;;;;;;5033827;28;20100;-74
2022/09/20 09:16:19;;;;;;;2.40;1.10;;;;;;;;;;5033827;28;20142;-74
2022/09/20 09:18:48;;;;;;;5.53;1.45;;;;;;;;;;5033325;28;20040;-75
2022/09/20 09:21:20;;;;;;;4.57;1.35;;;;;;;;;;5033525;28;20449;-73
2022/09/20 09:24:17;;;;;;;2.13;1.00;;;;;;;;;;5033796;28;20469;-76
2022/09/20 09:26:43;;;;;;;1.42;0.80;;;;;;;;;;5033681;28;20473;-74
2022/09/20 09:29:15;;;;;;;4.93;0.95;;;;;;;;;;5051391;28;20043;-75
2022/09/20 09:31:43;;;;;;;2.88;0.90;;;;;;;;;;5051342;28;20029;-76
2022/09/20 09:34:29;;;;;;;1.23;0.80;;;;;;;;;;5034026;28;20128;-74
2022/09/20 09:36:56;;;;;;;1.55;0.93;;;;;;;;;;5016912;28;20235;-77
2022/09/20 09:39:22;;;;;;;4.00;1.00;;;;;;;;;;5051297;28;20029;-76
2022/09/20 09:41:49;;;;;;;1.90;0.90;;;;;;;;;;5032311;28;20032;-74
2022/09/20 09:44:19;;;;;;;0.70;0.70;;;;;;;;;;5050017;28;20025;-74
2022/09/20 09:46:45;;;;;;;0.98;0.80;;;;;;;;;;5053289;28;20473;-73
2022/09/20 09:49:56;;;;;;;3.60;1.15;;;;;;;;;;5055184;28;20021;-74
2022/09/20 09:52:26;;;;;;;1.77;1.08;;;;;;;;;;5029427;28;20488;-74
2022/09/20 09:54:58;;;;;;;5.90;1.15;;;;;;;;;;5074534;28;20041;-74
2022/09/20 09:57:53;;;;;;;2.75;1.33;;;;;;;;;;5056694;28;20407;-74
2022/09/20 10:00:19;;;;;;;;;;;;;;;;;;5075061;28;20075;-74
2022/09/20 10:03:03;;;;;;;3.15;0.80;;;;;;;;;;5040244;28;19995;-74
2022/09/20 10:05:38;;;;;;;1.95;1.35;;;;;;;;;;5074882;28;20028;-74
2022/09/20 10:08:07;;;;;;;2.65;1.15;;;;;;;;;;5057052;28;20063;-74
2022/09/20 10:11:00;;;;;;;4.35;0.98;;;;;;;;;;5056941;28;20032;-74
2022/09/20 10:13:46;;;;;;;2.42;1.10;;;;;;;;;;5056602;28;20051;-74
2022/09/20 10:16:40;;;;;;;1.13;0.80;;;;;;;;;;5056628;28;20481;-74
2022/09/20 10:19:27;;;;;;;1.33;0.77;;;;;;;;;;5074628;28;20028;-74
2022/09/20 10:22:08;;;;;;;1.58;0.70;;;;;;;;;;5056604;28;20025;-75
2022/09/20 10:24:39;;;;;;;0.90;0.75;;;;;;;;;;5074748;28;20020;-74
2022/09/20 10:27:21;;;;;;;2.70;0.90;;;;;;;;;;5074490;28;20028;-74
2022/09/20 10:30:09;;;;;;;3.30;0.88;;;;;;;;;;5056963;28;20028;-74
2022/09/20 10:32:53;;;;;;;1.48;1.00;;;;;;;;;;5074443;28;20091;-74
2022/09/20 10:35:34;;;;;;;3.80;0.80;;;;;;;;;;5056097;28;20552;-74
2022/09/20 10:38:22;;;;;;;2.00;0.80;;;;;;;;;;5074541;28;20361;-74
2022/09/20 10:44:12;;;;;;;2.03;0.77;;;;;;;;;;5059200;28;20032;-75
2022/09/20 10:47:22;;;;;;;3.15;0.80;;;;;;;;;;5050647;28;20036;-75
2022/09/20 10:50:05;;;;;;;1.45;0.77;;;;;;;;;;5073997;28;20025;-74
2022/09/20 10:52:34;;;;;;;;;;;;;;;;;;5074137;28;20031;-75
2022/09/20 10:55:24;;;;;;;2.67;0.70;;;;;;;;;;5073869;28;20011;-75
2022/09/20 10:58:08;;;;;;;2.45;0.80;;;;;;;;;;5055544;28;20035;-75
2022/09/20 11:00:59;;;;;;;2.17;0.93;;;;;;;;;;5073699;28;20552;-75
2022/09/20 11:03:59;;;;;;;2.00;0.98;;;;;;;;;;5073512;28;20025;-74
2022/09/20 11:06:36;;;;;;;2.03;0.80;;;;;;;;;;5072133;28;20433;-75
2022/09/20 11:09:04;;;;;;;2.42;0.80;;;;;;;;;;5072724;28;20024;-75
2022/09/20 11:11:39;;;;;;;2.05;1.02;;;;;;;;;;5054908;28;20020;-75
2022/09/20 11:14:32;;;;;;;4.65;1.00;;;;;;;;;;5054834;28;20040;-75
2022/09/20 11:17:07;;;;;;;9.18;1.08;;;;;;;;;;5054928;28;20039;-75
2022/09/20 11:19:50;;;;;;;2.30;0.95;;;;;;;;;;5054907;28;20472;-75
2022/09/20 11:22:31;;;;;;;3.20;1.10;;;;;;;;;;5054438;28;20028;-74
2022/09/20 11:25:05;;;;;;;1.50;0.90;;;;;;;;;;5072509;28;20380;-75
2022/09/20 11:27:40;;;;;;;4.00;1.17;;;;;;;;;;5054609;28;20024;-75
2022/09/20 11:30:19;;;;;;;2.95;0.90;;;;;;;;;;5037949;28;20044;-74
2022/09/20 11:33:14;;;;;;;2.13;0.73;;;;;;;;;;5054474;28;20016;-75
2022/09/20 11:35:49;;;;;;;2.50;1.13;;;;;;;;;;5054158;28;20024;-75
2022/09/20 11:38:40;;;;;;;3.00;0.82;;;;;;;;;;5054330;28;20031;-74
2022/09/20 11:41:28;;;;;;;3.78;0.82;;;;;;;;;;5054414;28;20085;-74
2022/09/20 11:44:15;;;;;;;3.22;0.93;;;;;;;;;;5054247;28;20023;-74
2022/09/20 11:46:46;;;;;;;1.80;1.00;;;;;;;;;;5037378;28;20021;-74
2022/09/20 11:49:19;;;;;;;2.78;0.88;;;;;;;;;;5054242;28;20024;-74
2022/09/20 11:51:54;;;;;;;2.92;1.15;;;;;;;;;;5037355;28;20021;-74
2022/09/20 11:54:57;;;;;;;3.50;0.95;;;;;;;;;;5053819;28;20032;-74
2022/09/20 11:57:23;;;;;;;2.20;0.93;;;;;;;;;;5071932;28;20037;-74
2022/09/20 11:59:54;;;;;;;2.20;0.80;;;;;;;;;;5037252;28;20111;-74
2022/09/20 12:02:47;;;;;;;2.38;1.10;;;;;;;;;;5071842;28;20036;-74
2022/09/20 12:05:37;;;;;;;3.22;0.90;;;;;;;;;;5047992;28;20384;-75
2022/09/20 12:08:24;;;;;;;4.07;0.95;;;;;;;;;;5040278;28;20032;-74
2022/09/20 12:11:05;;;;;;;2.25;0.98;;;;;;;;;;5054000;28;20038;-74
2022/09/20 12:13:34;;;;;;;4.90;1.00;;;;;;;;;;5029879;28;20020;-74
2022/09/20 12:16:06;;;;;;;3.40;0.80;;;;;;;;;;5017347;28;20108;-74
2022/09/20 12:18:37;;;;;;;7.40;1.70;;;;;;;;;;5017797;28;20476;-74
2022/09/20 12:21:02;;;;;;;4.53;1.00;;;;;;;;;;5034797;28;20025;-75
2022/09/20 12:23:43;;;;;;;2.35;0.90;;;;;;;;;;5051588;28;20103;-75
2022/09/20 12:26:17;;;;;;;2.88;1.23;;;;;;;;;;5033492;28;20025;-74
2022/09/20 12:28:50;;;;;;;2.95;1.00;;;;;;;;;;5033526;28;20107;-74
2022/09/20 12:31:21;;;;;;;3.13;0.82;;;;;;;;;;5033284;28;20032;-75
2022/09/20 12:34:14;;;;;;;2.38;0.85;;;;;;;;;;5051386;28;20028;-74
2022/09/20 12:37:04;;;;;;;3.97;0.93;;;;;;;;;;5051230;28;20025;-74
2022/09/20 12:39:37;;;;;;;3.83;1.02;;;;;;;;;;5051325;28;20037;-74
2022/09/20 12:42:09;;;;;;;2.80;0.68;;;;;;;;;;5016781;28;20032;-74
2022/09/20 12:44:38;;;;;;;3.45;0.85;;;;;;;;;;5051003;28;20021;-75
2022/09/20 12:47:05;;;;;;;6.60;0.75;;;;;;;;;;5017000;28;20029;-74
2022/09/20 12:53:02;;;;;;;2.03;0.70;;;;;;;;;;5051393;28;20183;-74
2022/09/20 12:55:39;;;;;;;3.25;1.02;;;;;;;;;;5051483;28;20096;-74
2022/09/20 12:58:14;;;;;;;6.65;0.77;;;;;;;;;;5033723;28;20073;-74
2022/09/20 13:00:56;;;;;;;2.60;1.00;;;;;;;;;;5033086;28;20060;-74
2022/09/20 13:03:35;;;;;;;5.47;1.15;;;;;;;;;;5033476;28;20035;-75
2022/09/20 13:06:07;;;;;;;1.15;0.63;;;;;;;;;;5051252;28;20076;-75
2022/09/20 13:08:48;;;;;;;3.13;1.30;;;;;;;;;;5033615;28;20544;-75
2022/09/20 13:11:18;;;;;;;2.35;0.90;;;;;;;;;;5017559;28;20041;-74
2022/09/20 13:13:57;;;;;;;3.65;0.98;;;;;;;;;;5050988;28;20058;-75
2022/09/20 13:16:31;;;;;;;3.03;0.85;;;;;;;;;;5051370;28;20039;-74
2022/09/20 13:19:06;;;;;;;2.13;0.73;;;;;;;;;;5017513;28;20025;-74
2022/09/20 13:21:40;;;;;;;1.35;0.70;;;;;;;;;;5020488;28;20033;-74
2022/09/20 13:24:06;;;;;;;6.25;0.85;;;;;;;;;;5037135;28;20120;-75
2022/09/20 13:26:38;;;;;;;5.40;1.00;;;;;;;;;;5037275;28;20056;-75
2022/09/20 13:29:06;;;;;;;3.67;0.90;;;;;;;;;;5036793;28;20025;-75
2022/09/20 13:31:33;;;;;;;5.55;1.15;;;;;;;;;;5037175;28;20033;-76
2022/09/20 13:34:22;;;;;;;8.07;1.00;;;;;;;;;;5055205;28;20033;-76
2022/09/20 13:36:52;;;;;;;9.73;1.30;;;;;;;;;;5020793;28;20025;-76
2022/09/20 13:39:36;;;;;;;7.15;1.70;;;;;;;;;;5020824;28;20032;-76
2022/09/20 13:42:08;;;;;;;3.55;1.45;;;;;;;;;;5020358;28;20462;-76
2022/09/20 13:44:34;;;;;;;4.45;1.10;;;;;;;;;;5055113;28;20040;-76
2022/09/20 13:46:59;;;;;;;1.90;0.95;;;;;;;;;;5037663;28;20076;-76
2022/09/20 13:49:30;;;;;;;6.10;1.20;;;;;;;;;;5038075;28;20025;-76
2022/09/20 13:51:56;;;;;;;3.53;0.77;;;;;;;;;;5020638;28;20112;-76
2022/09/20 13:54:31;;;;;;;2.85;1.00;;;;;;;;;;5004610;28;20120;-76
2022/09/20 13:56:59;;;;;;;1.50;0.80;;;;;;;;;;5037235;28;20515;-76
2022/09/20 13:59:30;;;;;;;4.07;1.00;;;;;;;;;;5036994;28;20487;-76
2022/09/20 14:01:56;;;;;;;9.80;1.17;;;;;;;;;;5040536;28;20045;-76
2022/09/20 14:04:23;;;;;;;6.05;1.10;;;;;;;;;;5055456;28;20369;-76
2022/09/20 14:06:51;;;;;;;2.90;1.10;;;;;;;;;;5019993;28;20031;-76
2022/09/20 14:09:27;;;;;;;5.97;0.95;;;;;;;;;;5036845;28;20083;-76
2022/09/20 14:11:53;;;;;;;2.15;0.90;;;;;;;;;;5037505;28;20045;-76
2022/09/20 14:14:18;;;;;;;2.92;0.90;;;;;;;;;;5019148;28;20051;-76
2022/09/20 14:16:45;;;;;;;2.08;0.90;;;;;;;;;;5036557;28;20033;-76
2022/09/20 14:19:14;;;;;;;1.40;0.68;;;;;;;;;;5036517;28;20184;-77
2022/09/20 14:21:39;;;;;;;1.00;0.65;;;;;;;;;;5036729;28;20036;-77
2022/09/20 14:24:30;;;;;;;3.92;0.85;;;;;;;;;;5037512;28;20025;-76
2022/09/20 14:27:03;;;;;;;6.30;1.13;;;;;;;;;;5034161;28;20040;-76
2022/09/20 14:29:43;;;;;;;2.90;0.70;;;;;;;;;;5036138;28;20021;-76
2022/09/20 14:32:18;;;;;;;5.28;0.75;;;;;;;;;;5053759;28;20049;-76
2022/09/20 14:34:55;;;;;;;2.85;1.20;;;;;;;;;;5036595;28;20518;-76
2022/09/20 14:37:27;;;;;;;1.92;0.85;;;;;;;;;;5053993;28;20024;-76
2022/09/20 14:40:15;;;;;;;1.90;0.77;;;;;;;;;;5019988;28;20033;-76
2022/09/20 14:42:58;;;;;;;3.00;0.93;;;;;;;;;;5035561;28;20048;-76
2022/09/20 14:45:33;;;;;;;3.15;1.00;;;;;;;;;;5037004;28;20052;-77
2022/09/20 14:48:07;;;;;;;3.53;0.93;;;;;;;;;;5055502;28;20075;-75
2022/09/20 14:50:36;;;;;;;4.18;0.95;;;;;;;;;;5055951;28;20021;-76
2022/09/20 14:53:02;;;;;;;5.03;0.85;;;;;;;;;;5021360;28;20029;-76
2022/09/20 14:55:31;;;;;;;1.87;1.00;;;;;;;;;;5059046;28;20037;-77
2022/09/20 14:58:20;;;;;;;3.00;1.20;;;;;;;;;;5044258;28;20273;-77
2022/09/20 15:00:51;;;;;;;6.80;1.00;;;;;;;;;;5054254;28;20060;-76
2022/09/20 15:03:30;;;;;;;2.40;0.90;;;;;;;;;;5059531;28;20017;-78
2022/09/20 15:05:56;;;;;;;4.45;1.20;;;;;;;;;;5039514;28;20082;-75
2022/09/20 15:08:22;;;;;;;2.38;0.95;;;;;;;;;;5039179;28;20044;-77
2022/09/20 15:10:48;;;;;;;6.15;0.60;;;;;;;;;;5054999;28;20025;-79
2022/09/20 15:13:14;;;;;;;9.57;1.13;;;;;;;;;;5029179;28;20476;-78
2022/09/20 15:15:40;;;;;;;1.92;0.80;;;;;;;;;;5060603;28;20032;-78
2022/09/20 15:18:20;;;;;;;1.13;0.68;;;;;;;;;;5043530;28;20033;-77
2022/09/20 15:20:46;;;;;;;2.80;0.88;;;;;;;;;;5055979;28;20029;-79
2022/09/20 15:23:12;;;;;;;2.25;1.00;;;;;;;;;;5036661;28;20087;-79
2022/09/20 15:25:37;;;;;;;5.20;1.02;;;;;;;;;;5037981;28;20028;-77
2022/09/20 15:28:02;;;;;;;2.83;1.08;;;;;;;;;;5038720;28;20060;-77
2022/09/20 15:30:29;;;;;;;8.52;1.63;;;;;;;;;;5048041;28;20047;-77
2022/09/20 15:32:55;;;;;;;1.58;0.57;;;;;;;;;;5057267;28;20029;-77
2022/09/20 15:35:20;;;;;;;5.13;0.70;;;;;;;;;;5053469;28;20448;-77
2022/09/20 15:37:46;;;;;;;3.90;0.68;;;;;;;;;;5050975;28;20065;-76
2022/09/20 15:40:21;;;;;;;0.98;0.50;;;;;;;;;;5052580;28;20032;-77
2022/09/20 15:42:46;;;;;;;4.38;0.70;;;;;;;;;;5024621;28;20048;-77
2022/09/20 15:45:15;;;;;;;3.92;0.90;;;;;;;;;;5046170;28;20047;-77
2022/09/20 15:47:40;;;;;;;2.47;0.73;;;;;;;;;;5020927;28;20036;-76
2022/09/20 15:50:07;;;;;;;4.20;1.27;;;;;;;;;;5068150;28;20032;-77
2022/09/20 15:52:35;;;;;;;4.53;0.80;;;;;;;;;;5043765;28;20108;-77